sensor_id;sensor_type;location;lat;lon;timestamp;P1;P2;P0
42410;PMS5003;28056;51.112;0.984;2023-03-26T00:01:40;10;7;
42410;PMS5003;28056;51.112;0.984;2023-03-26T00:04:07;15;8;
42410;PMS5003;28056;51.112;0.984;2023-03-26T00:06:35;11;5;
42410;PMS5003;28056;51.112;0.984;2023-03-26T00:09:04;7;6;
42410;PMS5003;28056;51.112;0.984;2023-03-26T00:11:33;15;6;
42410;PMS5003;28056;51.112;0.984;2023-03-26T00:14:00;5;5;
42410;PMS5003;28056;51.112;0.984;2023-03-26T00:16:29;12;6;
42410;PMS5003;28056;51.112;0.984;2023-03-26T00:18:58;8;6;
42410;PMS5003;28056;51.112;0.984;2023-03-26T00:21:27;7;5;
42410;PMS5003;28056;51.112;0.984;2023-03-26T00:23:56;12;6;
42410;PMS5003;28056;51.112;0.984;2023-03-26T00:26:25;36;25;
42410;PMS5003;28056;51.112;0.984;2023-03-26T00:28:53;15;8;
42410;PMS5003;28056;51.112;0.984;2023-03-26T00:31:20;8;5;
42410;PMS5003;28056;51.112;0.984;2023-03-26T00:33:49;3;3;
42410;PMS5003;28056;51.112;0.984;2023-03-26T00:36:17;10;3;
42410;PMS5003;28056;51.112;0.984;2023-03-26T00:38:45;6;6;
42410;PMS5003;28056;51.112;0.984;2023-03-26T00:41:13;6;5;
42410;PMS5003;28056;51.112;0.984;2023-03-26T00:43:42;7;6;
42410;PMS5003;28056;51.112;0.984;2023-03-26T00:46:11;3;2;
42410;PMS5003;28056;51.112;0.984;2023-03-26T00:48:39;11;6;
42410;PMS5003;28056;51.112;0.984;2023-03-26T00:51:06;5;5;
42410;PMS5003;28056;51.112;0.984;2023-03-26T00:53:34;3;2;
42410;PMS5003;28056;51.112;0.984;2023-03-26T00:56:02;5;3;
42410;PMS5003;28056;51.112;0.984;2023-03-26T00:58:30;2;2;
42410;PMS5003;28056;51.112;0.984;2023-03-26T01:00:58;8;5;
42410;PMS5003;28056;51.112;0.984;2023-03-26T01:04:55;6;6;
42410;PMS5003;28056;51.112;0.984;2023-03-26T01:07:24;7;5;
42410;PMS5003;28056;51.112;0.984;2023-03-26T01:09:53;6;2;
42410;PMS5003;28056;51.112;0.984;2023-03-26T01:12:23;10;6;
42410;PMS5003;28056;51.112;0.984;2023-03-26T01:14:53;7;5;
42410;PMS5003;28056;51.112;0.984;2023-03-26T01:17:23;5;5;
42410;PMS5003;28056;51.112;0.984;2023-03-26T01:19:52;6;3;
42410;PMS5003;28056;51.112;0.984;2023-03-26T01:22:25;4;4;
42410;PMS5003;28056;51.112;0.984;2023-03-26T01:24:53;6;5;
42410;PMS5003;28056;51.112;0.984;2023-03-26T01:31:23;7;5;
42410;PMS5003;28056;51.112;0.984;2023-03-26T01:33:57;12;7;
42410;PMS5003;28056;51.112;0.984;2023-03-26T01:36:36;13;7;
42410;PMS5003;28056;51.112;0.984;2023-03-26T01:39:09;15;13;
42410;PMS5003;28056;51.112;0.984;2023-03-26T01:41:43;7;7;
42410;PMS5003;28056;51.112;0.984;2023-03-26T01:44:15;11;8;
42410;PMS5003;28056;51.112;0.984;2023-03-26T01:46:52;5;5;
42410;PMS5003;28056;51.112;0.984;2023-03-26T01:49:20;7;7;
42410;PMS5003;28056;51.112;0.984;2023-03-26T01:51:49;6;5;
42410;PMS5003;28056;51.112;0.984;2023-03-26T01:54:17;8;6;
42410;PMS5003;28056;51.112;0.984;2023-03-26T01:56:52;7;6;
42410;PMS5003;28056;51.112;0.984;2023-03-26T01:59:34;8;6;
42410;PMS5003;28056;51.112;0.984;2023-03-26T02:02:16;6;6;
42410;PMS5003;28056;51.112;0.984;2023-03-26T02:04:53;8;6;
42410;PMS5003;28056;51.112;0.984;2023-03-26T02:07:27;7;6;
42410;PMS5003;28056;51.112;0.984;2023-03-26T02:10:05;8;7;
42410;PMS5003;28056;51.112;0.984;2023-03-26T02:12:38;6;5;
42410;PMS5003;28056;51.112;0.984;2023-03-26T02:15:07;5;5;
42410;PMS5003;28056;51.112;0.984;2023-03-26T02:17:35;7;6;
42410;PMS5003;28056;51.112;0.984;2023-03-26T02:20:03;12;7;
42410;PMS5003;28056;51.112;0.984;2023-03-26T02:22:32;8;5;
42410;PMS5003;28056;51.112;0.984;2023-03-26T02:24:59;8;7;
42410;PMS5003;28056;51.112;0.984;2023-03-26T02:27:26;8;7;
42410;PMS5003;28056;51.112;0.984;2023-03-26T02:29:54;7;7;
42410;PMS5003;28056;51.112;0.984;2023-03-26T02:32:21;6;3;
42410;PMS5003;28056;51.112;0.984;2023-03-26T02:34:49;5;2;
42410;PMS5003;28056;51.112;0.984;2023-03-26T02:37:17;10;5;
42410;PMS5003;28056;51.112;0.984;2023-03-26T02:39:49;6;5;
42410;PMS5003;28056;51.112;0.984;2023-03-26T02:42:17;7;3;
42410;PMS5003;28056;51.112;0.984;2023-03-26T02:44:45;2;2;
42410;PMS5003;28056;51.112;0.984;2023-03-26T02:47:13;3;3;
42410;PMS5003;28056;51.112;0.984;2023-03-26T02:49:41;3;2;
42410;PMS5003;28056;51.112;0.984;2023-03-26T02:52:09;3;2;
42410;PMS5003;28056;51.112;0.984;2023-03-26T02:54:36;3;3;
42410;PMS5003;28056;51.112;0.984;2023-03-26T02:57:03;6;2;
42410;PMS5003;28056;51.112;0.984;2023-03-26T02:59:30;2;2;
42410;PMS5003;28056;51.112;0.984;2023-03-26T03:01:58;1;1;
42410;PMS5003;28056;51.112;0.984;2023-03-26T03:04:25;5;2;
42410;PMS5003;28056;51.112;0.984;2023-03-26T03:06:53;2;2;
42410;PMS5003;28056;51.112;0.984;2023-03-26T03:09:20;3;3;
42410;PMS5003;28056;51.112;0.984;2023-03-26T03:11:48;5;3;
42410;PMS5003;28056;51.112;0.984;2023-03-26T03:14:15;2;1;
42410;PMS5003;28056;51.112;0.984;2023-03-26T03:16:42;2;2;
42410;PMS5003;28056;51.112;0.984;2023-03-26T03:19:09;2;2;
42410;PMS5003;28056;51.112;0.984;2023-03-26T03:21:37;2;2;
42410;PMS5003;28056;51.112;0.984;2023-03-26T03:24:09;2;1;
42410;PMS5003;28056;51.112;0.984;2023-03-26T03:26:37;1;1;
42410;PMS5003;28056;51.112;0.984;2023-03-26T03:29:04;1;1;
42410;PMS5003;28056;51.112;0.984;2023-03-26T03:31:32;3;2;
42410;PMS5003;28056;51.112;0.984;2023-03-26T03:33:59;1;1;
42410;PMS5003;28056;51.112;0.984;2023-03-26T03:36:26;2;2;
42410;PMS5003;28056;51.112;0.984;2023-03-26T03:38:55;2;2;
42410;PMS5003;28056;51.112;0.984;2023-03-26T03:41:22;1;1;
42410;PMS5003;28056;51.112;0.984;2023-03-26T03:43:49;3;2;
42410;PMS5003;28056;51.112;0.984;2023-03-26T03:46:17;6;6;
42410;PMS5003;28056;51.112;0.984;2023-03-26T03:48:45;3;2;
42410;PMS5003;28056;51.112;0.984;2023-03-26T03:51:12;1;1;
42410;PMS5003;28056;51.112;0.984;2023-03-26T03:53:40;2;1;
42410;PMS5003;28056;51.112;0.984;2023-03-26T03:56:08;3;2;
42410;PMS5003;28056;51.112;0.984;2023-03-26T03:58:36;1;1;
42410;PMS5003;28056;51.112;0.984;2023-03-26T04:01:04;2;2;
42410;PMS5003;28056;51.112;0.984;2023-03-26T04:03:32;2;2;
42410;PMS5003;28056;51.112;0.984;2023-03-26T04:05:59;1;1;
42410;PMS5003;28056;51.112;0.984;2023-03-26T04:08:27;2;2;
42410;PMS5003;28056;51.112;0.984;2023-03-26T04:10:55;3;3;
42410;PMS5003;28056;51.112;0.984;2023-03-26T04:13:22;5;5;
42410;PMS5003;28056;51.112;0.984;2023-03-26T04:15:49;3;3;
42410;PMS5003;28056;51.112;0.984;2023-03-26T04:18:16;2;2;
42410;PMS5003;28056;51.112;0.984;2023-03-26T04:20:43;1;1;
42410;PMS5003;28056;51.112;0.984;2023-03-26T04:23:11;1;1;
42410;PMS5003;28056;51.112;0.984;2023-03-26T04:25:39;6;3;
42410;PMS5003;28056;51.112;0.984;2023-03-26T04:28:10;3;3;
42410;PMS5003;28056;51.112;0.984;2023-03-26T04:30:47;3;3;
42410;PMS5003;28056;51.112;0.984;2023-03-26T04:33:14;5;3;
42410;PMS5003;28056;51.112;0.984;2023-03-26T04:35:42;6;5;
42410;PMS5003;28056;51.112;0.984;2023-03-26T04:38:09;6;6;
42410;PMS5003;28056;51.112;0.984;2023-03-26T04:40:38;7;6;
42410;PMS5003;28056;51.112;0.984;2023-03-26T04:43:07;7;6;
42410;PMS5003;28056;51.112;0.984;2023-03-26T04:45:37;2;2;
42410;PMS5003;28056;51.112;0.984;2023-03-26T04:48:05;5;5;
42410;PMS5003;28056;51.112;0.984;2023-03-26T04:50:33;2;2;
42410;PMS5003;28056;51.112;0.984;2023-03-26T04:53:01;2;2;
42410;PMS5003;28056;51.112;0.984;2023-03-26T04:55:30;3;1;
42410;PMS5003;28056;51.112;0.984;2023-03-26T04:58:02;3;3;
42410;PMS5003;28056;51.112;0.984;2023-03-26T05:00:30;2;2;
42410;PMS5003;28056;51.112;0.984;2023-03-26T05:02:57;7;1;
42410;PMS5003;28056;51.112;0.984;2023-03-26T05:05:24;1;1;
42410;PMS5003;28056;51.112;0.984;2023-03-26T05:07:53;2;2;
42410;PMS5003;28056;51.112;0.984;2023-03-26T05:10:21;2;2;
42410;PMS5003;28056;51.112;0.984;2023-03-26T05:12:49;1;1;
42410;PMS5003;28056;51.112;0.984;2023-03-26T05:15:16;2;2;
42410;PMS5003;28056;51.112;0.984;2023-03-26T05:17:48;0;0;
42410;PMS5003;28056;51.112;0.984;2023-03-26T05:20:16;1;1;
42410;PMS5003;28056;51.112;0.984;2023-03-26T05:22:45;0;0;
42410;PMS5003;28056;51.112;0.984;2023-03-26T05:25:13;0;0;
42410;PMS5003;28056;51.112;0.984;2023-03-26T05:27:41;0;0;
42410;PMS5003;28056;51.112;0.984;2023-03-26T05:30:10;1;1;
42410;PMS5003;28056;51.112;0.984;2023-03-26T05:32:40;0;0;
42410;PMS5003;28056;51.112;0.984;2023-03-26T05:35:07;0;0;
42410;PMS5003;28056;51.112;0.984;2023-03-26T05:37:35;1;0;
42410;PMS5003;28056;51.112;0.984;2023-03-26T05:40:02;0;0;
42410;PMS5003;28056;51.112;0.984;2023-03-26T05:42:32;0;0;
42410;PMS5003;28056;51.112;0.984;2023-03-26T05:44:59;0;0;
42410;PMS5003;28056;51.112;0.984;2023-03-26T05:47:26;1;0;
42410;PMS5003;28056;51.112;0.984;2023-03-26T05:49:53;1;1;
42410;PMS5003;28056;51.112;0.984;2023-03-26T05:52:20;0;0;
42410;PMS5003;28056;51.112;0.984;2023-03-26T05:54:48;0;0;
42410;PMS5003;28056;51.112;0.984;2023-03-26T05:57:16;0;0;
42410;PMS5003;28056;51.112;0.984;2023-03-26T05:59:43;0;0;
42410;PMS5003;28056;51.112;0.984;2023-03-26T06:02:10;0;0;
42410;PMS5003;28056;51.112;0.984;2023-03-26T06:04:38;0;0;
42410;PMS5003;28056;51.112;0.984;2023-03-26T06:07:05;0;0;
42410;PMS5003;28056;51.112;0.984;2023-03-26T06:09:34;0;0;
42410;PMS5003;28056;51.112;0.984;2023-03-26T06:12:01;0;0;
42410;PMS5003;28056;51.112;0.984;2023-03-26T06:14:29;0;0;
42410;PMS5003;28056;51.112;0.984;2023-03-26T06:16:56;1;0;
42410;PMS5003;28056;51.112;0.984;2023-03-26T06:19:24;0;0;
42410;PMS5003;28056;51.112;0.984;2023-03-26T06:21:51;0;0;
42410;PMS5003;28056;51.112;0.984;2023-03-26T06:24:20;0;0;
42410;PMS5003;28056;51.112;0.984;2023-03-26T06:26:47;0;0;
42410;PMS5003;28056;51.112;0.984;2023-03-26T06:29:14;0;0;
42410;PMS5003;28056;51.112;0.984;2023-03-26T06:31:42;0;0;
42410;PMS5003;28056;51.112;0.984;2023-03-26T06:34:09;2;0;
42410;PMS5003;28056;51.112;0.984;2023-03-26T06:36:37;0;0;
42410;PMS5003;28056;51.112;0.984;2023-03-26T06:39:04;0;0;
42410;PMS5003;28056;51.112;0.984;2023-03-26T06:41:31;0;0;
42410;PMS5003;28056;51.112;0.984;2023-03-26T06:43:59;0;0;
42410;PMS5003;28056;51.112;0.984;2023-03-26T06:46:26;0;0;
42410;PMS5003;28056;51.112;0.984;2023-03-26T06:48:54;0;0;
42410;PMS5003;28056;51.112;0.984;2023-03-26T06:51:21;0;0;
42410;PMS5003;28056;51.112;0.984;2023-03-26T06:53:48;0;0;
42410;PMS5003;28056;51.112;0.984;2023-03-26T06:56:16;0;0;
42410;PMS5003;28056;51.112;0.984;2023-03-26T06:58:44;0;0;
42410;PMS5003;28056;51.112;0.984;2023-03-26T07:01:11;1;0;
42410;PMS5003;28056;51.112;0.984;2023-03-26T07:03:38;0;0;
42410;PMS5003;28056;51.112;0.984;2023-03-26T07:06:05;2;0;
42410;PMS5003;28056;51.112;0.984;2023-03-26T07:08:32;2;0;
42410;PMS5003;28056;51.112;0.984;2023-03-26T07:11:00;1;1;
42410;PMS5003;28056;51.112;0.984;2023-03-26T07:13:27;2;2;
42410;PMS5003;28056;51.112;0.984;2023-03-26T07:15:54;2;2;
42410;PMS5003;28056;51.112;0.984;2023-03-26T07:18:21;1;1;
42410;PMS5003;28056;51.112;0.984;2023-03-26T07:20:49;1;1;
42410;PMS5003;28056;51.112;0.984;2023-03-26T07:23:16;2;2;
42410;PMS5003;28056;51.112;0.984;2023-03-26T07:25:44;1;1;
42410;PMS5003;28056;51.112;0.984;2023-03-26T07:28:13;1;1;
42410;PMS5003;28056;51.112;0.984;2023-03-26T07:30:52;1;1;
42410;PMS5003;28056;51.112;0.984;2023-03-26T07:33:30;1;1;
42410;PMS5003;28056;51.112;0.984;2023-03-26T07:36:08;0;0;
42410;PMS5003;28056;51.112;0.984;2023-03-26T07:38:50;0;0;
42410;PMS5003;28056;51.112;0.984;2023-03-26T07:41:32;1;1;
42410;PMS5003;28056;51.112;0.984;2023-03-26T07:44:13;1;1;
42410;PMS5003;28056;51.112;0.984;2023-03-26T07:46:52;2;0;
42410;PMS5003;28056;51.112;0.984;2023-03-26T07:49:20;2;1;
42410;PMS5003;28056;51.112;0.984;2023-03-26T07:51:48;2;1;
42410;PMS5003;28056;51.112;0.984;2023-03-26T07:54:15;0;0;
42410;PMS5003;28056;51.112;0.984;2023-03-26T07:56:48;0;0;
42410;PMS5003;28056;51.112;0.984;2023-03-26T07:59:21;0;0;
42410;PMS5003;28056;51.112;0.984;2023-03-26T08:02:03;0;0;
42410;PMS5003;28056;51.112;0.984;2023-03-26T08:04:54;0;0;
42410;PMS5003;28056;51.112;0.984;2023-03-26T08:07:32;0;0;
42410;PMS5003;28056;51.112;0.984;2023-03-26T08:10:11;0;0;
42410;PMS5003;28056;51.112;0.984;2023-03-26T08:12:47;0;0;
42410;PMS5003;28056;51.112;0.984;2023-03-26T08:15:23;1;1;
42410;PMS5003;28056;51.112;0.984;2023-03-26T08:17:58;0;0;
42410;PMS5003;28056;51.112;0.984;2023-03-26T08:20:32;0;0;
42410;PMS5003;28056;51.112;0.984;2023-03-26T08:23:07;0;0;
42410;PMS5003;28056;51.112;0.984;2023-03-26T08:25:45;0;0;
42410;PMS5003;28056;51.112;0.984;2023-03-26T08:28:22;0;0;
42410;PMS5003;28056;51.112;0.984;2023-03-26T08:30:57;1;0;
42410;PMS5003;28056;51.112;0.984;2023-03-26T08:33:26;0;0;
42410;PMS5003;28056;51.112;0.984;2023-03-26T08:35:54;0;0;
42410;PMS5003;28056;51.112;0.984;2023-03-26T08:38:21;0;0;
42410;PMS5003;28056;51.112;0.984;2023-03-26T08:40:56;0;0;
42410;PMS5003;28056;51.112;0.984;2023-03-26T08:44:12;0;0;
42410;PMS5003;28056;51.112;0.984;2023-03-26T08:47:21;0;0;
42410;PMS5003;28056;51.112;0.984;2023-03-26T08:50:16;0;0;
42410;PMS5003;28056;51.112;0.984;2023-03-26T08:53:01;0;0;
42410;PMS5003;28056;51.112;0.984;2023-03-26T08:55:47;0;0;
42410;PMS5003;28056;51.112;0.984;2023-03-26T08:58:29;0;0;
42410;PMS5003;28056;51.112;0.984;2023-03-26T09:01:26;0;0;
42410;PMS5003;28056;51.112;0.984;2023-03-26T09:04:19;0;0;
42410;PMS5003;28056;51.112;0.984;2023-03-26T09:07:25;0;0;
42410;PMS5003;28056;51.112;0.984;2023-03-26T09:10:50;0;0;
42410;PMS5003;28056;51.112;0.984;2023-03-26T09:13:30;1;1;
42410;PMS5003;28056;51.112;0.984;2023-03-26T09:16:26;0;0;
42410;PMS5003;28056;51.112;0.984;2023-03-26T09:19:21;0;0;
42410;PMS5003;28056;51.112;0.984;2023-03-26T09:23:19;0;0;
42410;PMS5003;28056;51.112;0.984;2023-03-26T09:26:12;0;0;
42410;PMS5003;28056;51.112;0.984;2023-03-26T09:29:46;1;1;
42410;PMS5003;28056;51.112;0.984;2023-03-26T09:32:48;0;0;
42410;PMS5003;28056;51.112;0.984;2023-03-26T09:35:38;0;0;
42410;PMS5003;28056;51.112;0.984;2023-03-26T09:38:20;0;0;
42410;PMS5003;28056;51.112;0.984;2023-03-26T09:41:01;2;1;
42410;PMS5003;28056;51.112;0.984;2023-03-26T09:44:45;0;0;
42410;PMS5003;28056;51.112;0.984;2023-03-26T09:47:30;0;0;
42410;PMS5003;28056;51.112;0.984;2023-03-26T09:50:17;1;1;
42410;PMS5003;28056;51.112;0.984;2023-03-26T09:52:56;2;1;
42410;PMS5003;28056;51.112;0.984;2023-03-26T09:55:32;1;1;
42410;PMS5003;28056;51.112;0.984;2023-03-26T09:58:17;1;0;
42410;PMS5003;28056;51.112;0.984;2023-03-26T10:01:07;1;1;
42410;PMS5003;28056;51.112;0.984;2023-03-26T10:03:44;1;1;
42410;PMS5003;28056;51.112;0.984;2023-03-26T10:06:27;1;1;
42410;PMS5003;28056;51.112;0.984;2023-03-26T10:09:23;1;1;
42410;PMS5003;28056;51.112;0.984;2023-03-26T10:12:03;1;1;
42410;PMS5003;28056;51.112;0.984;2023-03-26T10:14:47;1;1;
42410;PMS5003;28056;51.112;0.984;2023-03-26T10:17:44;1;1;
42410;PMS5003;28056;51.112;0.984;2023-03-26T10:20:26;2;1;
42410;PMS5003;28056;51.112;0.984;2023-03-26T10:23:01;2;1;
42410;PMS5003;28056;51.112;0.984;2023-03-26T10:25:42;0;0;
42410;PMS5003;28056;51.112;0.984;2023-03-26T10:28:29;1;1;
42410;PMS5003;28056;51.112;0.984;2023-03-26T10:31:12;1;1;
42410;PMS5003;28056;51.112;0.984;2023-03-26T10:33:55;0;0;
42410;PMS5003;28056;51.112;0.984;2023-03-26T10:36:30;2;0;
42410;PMS5003;28056;51.112;0.984;2023-03-26T10:39:39;2;1;
42410;PMS5003;28056;51.112;0.984;2023-03-26T10:42:21;1;1;
42410;PMS5003;28056;51.112;0.984;2023-03-26T10:45:12;1;1;
42410;PMS5003;28056;51.112;0.984;2023-03-26T10:47:54;1;1;
42410;PMS5003;28056;51.112;0.984;2023-03-26T10:50:43;0;0;
42410;PMS5003;28056;51.112;0.984;2023-03-26T10:53:24;3;1;
42410;PMS5003;28056;51.112;0.984;2023-03-26T10:56:00;0;0;
42410;PMS5003;28056;51.112;0.984;2023-03-26T10:58:33;1;1;
42410;PMS5003;28056;51.112;0.984;2023-03-26T11:01:02;1;1;
42410;PMS5003;28056;51.112;0.984;2023-03-26T11:03:41;1;1;
42410;PMS5003;28056;51.112;0.984;2023-03-26T11:06:17;0;0;
42410;PMS5003;28056;51.112;0.984;2023-03-26T11:08:54;2;1;
42410;PMS5003;28056;51.112;0.984;2023-03-26T11:11:30;0;0;
42410;PMS5003;28056;51.112;0.984;2023-03-26T11:14:06;2;1;
42410;PMS5003;28056;51.112;0.984;2023-03-26T11:16:45;0;0;
42410;PMS5003;28056;51.112;0.984;2023-03-26T11:19:21;3;1;
42410;PMS5003;28056;51.112;0.984;2023-03-26T11:21:59;2;2;
42410;PMS5003;28056;51.112;0.984;2023-03-26T11:24:44;0;0;
42410;PMS5003;28056;51.112;0.984;2023-03-26T11:27:25;2;0;
42410;PMS5003;28056;51.112;0.984;2023-03-26T11:30:09;1;1;
42410;PMS5003;28056;51.112;0.984;2023-03-26T11:32:47;0;0;
42410;PMS5003;28056;51.112;0.984;2023-03-26T11:35:22;1;1;
42410;PMS5003;28056;51.112;0.984;2023-03-26T11:37:54;1;1;
42410;PMS5003;28056;51.112;0.984;2023-03-26T11:40:25;1;1;
42410;PMS5003;28056;51.112;0.984;2023-03-26T11:42:59;1;1;
42410;PMS5003;28056;51.112;0.984;2023-03-26T11:45:30;2;2;
42410;PMS5003;28056;51.112;0.984;2023-03-26T11:48:02;1;1;
42410;PMS5003;28056;51.112;0.984;2023-03-26T11:50:34;1;1;
42410;PMS5003;28056;51.112;0.984;2023-03-26T11:53:10;0;0;
42410;PMS5003;28056;51.112;0.984;2023-03-26T11:55:39;2;2;
42410;PMS5003;28056;51.112;0.984;2023-03-26T11:58:19;1;1;
42410;PMS5003;28056;51.112;0.984;2023-03-26T12:00:51;1;1;
42410;PMS5003;28056;51.112;0.984;2023-03-26T12:03:19;0;0;
42410;PMS5003;28056;51.112;0.984;2023-03-26T12:05:48;2;0;
42410;PMS5003;28056;51.112;0.984;2023-03-26T12:08:17;1;1;
42410;PMS5003;28056;51.112;0.984;2023-03-26T12:10:50;0;0;
42410;PMS5003;28056;51.112;0.984;2023-03-26T12:13:28;1;1;
42410;PMS5003;28056;51.112;0.984;2023-03-26T12:16:05;0;0;
42410;PMS5003;28056;51.112;0.984;2023-03-26T12:18:36;1;1;
42410;PMS5003;28056;51.112;0.984;2023-03-26T12:21:05;1;1;
42410;PMS5003;28056;51.112;0.984;2023-03-26T12:23:36;1;1;
42410;PMS5003;28056;51.112;0.984;2023-03-26T12:26:10;0;0;
42410;PMS5003;28056;51.112;0.984;2023-03-26T12:28:43;0;0;
42410;PMS5003;28056;51.112;0.984;2023-03-26T12:31:12;0;0;
42410;PMS5003;28056;51.112;0.984;2023-03-26T12:33:40;1;0;
42410;PMS5003;28056;51.112;0.984;2023-03-26T12:36:19;1;1;
42410;PMS5003;28056;51.112;0.984;2023-03-26T12:38:49;0;0;
42410;PMS5003;28056;51.112;0.984;2023-03-26T12:41:17;0;0;
42410;PMS5003;28056;51.112;0.984;2023-03-26T12:43:47;0;0;
42410;PMS5003;28056;51.112;0.984;2023-03-26T12:46:21;0;0;
42410;PMS5003;28056;51.112;0.984;2023-03-26T12:48:51;0;0;
42410;PMS5003;28056;51.112;0.984;2023-03-26T12:51:23;0;0;
42410;PMS5003;28056;51.112;0.984;2023-03-26T12:54:04;0;0;
42410;PMS5003;28056;51.112;0.984;2023-03-26T12:56:42;1;1;
42410;PMS5003;28056;51.112;0.984;2023-03-26T12:59:20;1;1;
42410;PMS5003;28056;51.112;0.984;2023-03-26T13:02:00;1;0;
42410;PMS5003;28056;51.112;0.984;2023-03-26T13:04:47;1;1;
42410;PMS5003;28056;51.112;0.984;2023-03-26T13:07:28;1;1;
42410;PMS5003;28056;51.112;0.984;2023-03-26T13:10:44;6;4;
42410;PMS5003;28056;51.112;0.984;2023-03-26T13:13:19;8;3;
42410;PMS5003;28056;51.112;0.984;2023-03-26T13:15:58;4;2;
42410;PMS5003;28056;51.112;0.984;2023-03-26T13:18:34;6;2;
42410;PMS5003;28056;51.112;0.984;2023-03-26T13:21:11;2;2;
42410;PMS5003;28056;51.112;0.984;2023-03-26T13:23:49;3;2;
42410;PMS5003;28056;51.112;0.984;2023-03-26T13:26:27;7;4;
42410;PMS5003;28056;51.112;0.984;2023-03-26T13:29:04;5;5;
42410;PMS5003;28056;51.112;0.984;2023-03-26T13:31:40;7;6;
42410;PMS5003;28056;51.112;0.984;2023-03-26T13:34:17;7;7;
42410;PMS5003;28056;51.112;0.984;2023-03-26T13:36:56;6;6;
42410;PMS5003;28056;51.112;0.984;2023-03-26T13:39:33;10;6;
42410;PMS5003;28056;51.112;0.984;2023-03-26T13:42:17;8;7;
42410;PMS5003;28056;51.112;0.984;2023-03-26T13:44:59;13;10;
42410;PMS5003;28056;51.112;0.984;2023-03-26T13:47:36;8;5;
42410;PMS5003;28056;51.112;0.984;2023-03-26T13:50:13;10;10;
42410;PMS5003;28056;51.112;0.984;2023-03-26T13:52:47;7;7;
42410;PMS5003;28056;51.112;0.984;2023-03-26T13:55:21;11;7;
42410;PMS5003;28056;51.112;0.984;2023-03-26T13:57:53;5;3;
42410;PMS5003;28056;51.112;0.984;2023-03-26T14:00:26;7;5;
42410;PMS5003;28056;51.112;0.984;2023-03-26T14:03:07;3;3;
42410;PMS5003;28056;51.112;0.984;2023-03-26T14:05:43;8;5;
42410;PMS5003;28056;51.112;0.984;2023-03-26T14:08:15;7;5;
42410;PMS5003;28056;51.112;0.984;2023-03-26T14:10:48;7;6;
42410;PMS5003;28056;51.112;0.984;2023-03-26T14:13:21;7;5;
42410;PMS5003;28056;51.112;0.984;2023-03-26T14:15:55;5;3;
42410;PMS5003;28056;51.112;0.984;2023-03-26T14:18:29;2;2;
42410;PMS5003;28056;51.112;0.984;2023-03-26T14:21:06;2;2;
42410;PMS5003;28056;51.112;0.984;2023-03-26T14:23:50;5;2;
42410;PMS5003;28056;51.112;0.984;2023-03-26T14:26:36;2;2;
42410;PMS5003;28056;51.112;0.984;2023-03-26T14:29:24;7;5;
42410;PMS5003;28056;51.112;0.984;2023-03-26T14:32:00;5;2;
42410;PMS5003;28056;51.112;0.984;2023-03-26T14:34:46;2;2;
42410;PMS5003;28056;51.112;0.984;2023-03-26T14:37:32;6;5;
42410;PMS5003;28056;51.112;0.984;2023-03-26T14:40:30;3;3;
42410;PMS5003;28056;51.112;0.984;2023-03-26T14:43:17;9;3;
42410;PMS5003;28056;51.112;0.984;2023-03-26T14:46:11;6;5;
42410;PMS5003;28056;51.112;0.984;2023-03-26T14:48:57;6;5;
42410;PMS5003;28056;51.112;0.984;2023-03-26T14:51:45;6;6;
42410;PMS5003;28056;51.112;0.984;2023-03-26T14:54:23;3;2;
42410;PMS5003;28056;51.112;0.984;2023-03-26T14:58:01;2;2;
42410;PMS5003;28056;51.112;0.984;2023-03-26T15:00:47;3;3;
42410;PMS5003;28056;51.112;0.984;2023-03-26T15:03:45;5;2;
42410;PMS5003;28056;51.112;0.984;2023-03-26T15:05:10;5;2;
42410;PMS5003;28056;51.112;0.984;2023-03-26T15:09:56;6;2;
42410;PMS5003;28056;51.112;0.984;2023-03-26T15:12:19;6;3;
42410;PMS5003;28056;51.112;0.984;2023-03-26T15:15:20;2;2;
42410;PMS5003;28056;51.112;0.984;2023-03-26T15:18:09;5;2;
42410;PMS5003;28056;51.112;0.984;2023-03-26T15:20:59;10;2;
42410;PMS5003;28056;51.112;0.984;2023-03-26T15:24:02;6;3;
42410;PMS5003;28056;51.112;0.984;2023-03-26T15:26:33;6;3;
42410;PMS5003;28056;51.112;0.984;2023-03-26T15:29:53;6;5;
42410;PMS5003;28056;51.112;0.984;2023-03-26T15:32:39;8;3;
42410;PMS5003;28056;51.112;0.984;2023-03-26T15:35:31;1;1;
42410;PMS5003;28056;51.112;0.984;2023-03-26T15:38:25;7;6;
42410;PMS5003;28056;51.112;0.984;2023-03-26T15:41:15;3;1;
42410;PMS5003;28056;51.112;0.984;2023-03-26T15:44:01;3;3;
42410;PMS5003;28056;51.112;0.984;2023-03-26T15:46:49;2;2;
42410;PMS5003;28056;51.112;0.984;2023-03-26T15:49:24;0;0;
42410;PMS5003;28056;51.112;0.984;2023-03-26T15:52:05;2;2;
42410;PMS5003;28056;51.112;0.984;2023-03-26T15:54:46;3;1;
42410;PMS5003;28056;51.112;0.984;2023-03-26T15:57:22;3;3;
42410;PMS5003;28056;51.112;0.984;2023-03-26T15:59:59;3;3;
42410;PMS5003;28056;51.112;0.984;2023-03-26T16:02:39;1;1;
42410;PMS5003;28056;51.112;0.984;2023-03-26T16:05:23;3;3;
42410;PMS5003;28056;51.112;0.984;2023-03-26T16:08:02;6;6;
42410;PMS5003;28056;51.112;0.984;2023-03-26T16:10:38;3;2;
42410;PMS5003;28056;51.112;0.984;2023-03-26T16:13:45;7;5;
42410;PMS5003;28056;51.112;0.984;2023-03-26T16:16:22;3;3;
42410;PMS5003;28056;51.112;0.984;2023-03-26T16:19:47;2;2;
42410;PMS5003;28056;51.112;0.984;2023-03-26T16:22:54;1;1;
42410;PMS5003;28056;51.112;0.984;2023-03-26T16:25:25;2;2;
42410;PMS5003;28056;51.112;0.984;2023-03-26T16:28:28;6;6;
42410;PMS5003;28056;51.112;0.984;2023-03-26T16:31:19;3;1;
42410;PMS5003;28056;51.112;0.984;2023-03-26T16:33:50;1;1;
42410;PMS5003;28056;51.112;0.984;2023-03-26T16:36:24;1;1;
42410;PMS5003;28056;51.112;0.984;2023-03-26T16:39:07;5;1;
42410;PMS5003;28056;51.112;0.984;2023-03-26T16:42:02;2;2;
42410;PMS5003;28056;51.112;0.984;2023-03-26T16:44:49;6;5;
42410;PMS5003;28056;51.112;0.984;2023-03-26T16:47:25;3;3;
42410;PMS5003;28056;51.112;0.984;2023-03-26T16:50:01;2;2;
42410;PMS5003;28056;51.112;0.984;2023-03-26T16:52:42;6;3;
42410;PMS5003;28056;51.112;0.984;2023-03-26T16:55:20;3;2;
42410;PMS5003;28056;51.112;0.984;2023-03-26T16:57:53;5;2;
42410;PMS5003;28056;51.112;0.984;2023-03-26T17:00:31;5;5;
42410;PMS5003;28056;51.112;0.984;2023-03-26T17:03:08;2;1;
42410;PMS5003;28056;51.112;0.984;2023-03-26T17:05:58;3;3;
42410;PMS5003;28056;51.112;0.984;2023-03-26T17:08:33;10;3;
42410;PMS5003;28056;51.112;0.984;2023-03-26T17:11:15;3;3;
42410;PMS5003;28056;51.112;0.984;2023-03-26T17:13:50;2;2;
42410;PMS5003;28056;51.112;0.984;2023-03-26T17:16:31;3;2;
42410;PMS5003;28056;51.112;0.984;2023-03-26T17:19:04;1;1;
42410;PMS5003;28056;51.112;0.984;2023-03-26T17:21:44;2;2;
42410;PMS5003;28056;51.112;0.984;2023-03-26T17:24:24;2;2;
42410;PMS5003;28056;51.112;0.984;2023-03-26T17:27:03;2;2;
42410;PMS5003;28056;51.112;0.984;2023-03-26T17:29:47;3;3;
42410;PMS5003;28056;51.112;0.984;2023-03-26T17:32:41;5;3;
42410;PMS5003;28056;51.112;0.984;2023-03-26T17:35:34;2;2;
42410;PMS5003;28056;51.112;0.984;2023-03-26T17:38:06;3;3;
42410;PMS5003;28056;51.112;0.984;2023-03-26T17:41:48;3;3;
42410;PMS5003;28056;51.112;0.984;2023-03-26T17:44:26;3;3;
42410;PMS5003;28056;51.112;0.984;2023-03-26T17:47:12;10;3;
42410;PMS5003;28056;51.112;0.984;2023-03-26T17:49:50;2;2;
42410;PMS5003;28056;51.112;0.984;2023-03-26T17:52:25;7;2;
42410;PMS5003;28056;51.112;0.984;2023-03-26T17:55:00;5;3;
42410;PMS5003;28056;51.112;0.984;2023-03-26T17:57:31;1;1;
42410;PMS5003;28056;51.112;0.984;2023-03-26T18:00:06;5;3;